Pittsburgh, Pennsylvania
Traffic Map
Current Weather Conditions
Pittsburgh, Pennsylvania
Clear
Clear
27°
Feels Like: 27°
Wind Chill: 27° Ceiling: Unl
Heat Index: 27° Visibility: 10mi
Dew Point: 13° Wind: 7mph
Humidity: 41% Direction: 170° (S)
Pressure: 30.09in Gusts: 0mph
Raw Report DataKAGC 292253Z AUTO 17006KT 10SM CLR 27/13 A3009 RMK AO2 SLP186 T02720128 TSNO
Traffic Incident Summary
Active as of:
Severity:
Category:
InformationThere was an issue retrieving the traffic information for this location. Please try a different location or try again shortly.
Advertisements
Track Severe Weather on mobile